Time;durP1;ratioP1;P1;durP2;ratioP2;P2;SDS_P1;SDS_P2;PMS_P1;PMS_P2;Temp;Humidity;BMP_temperature;BMP_pressure;BME280_temperature;BME280_humidity;BME280_pressure;Samples;Min_cycle;Max_cycle;Signal;HPM_P1;HPM_P2
2021/10/09 00:02:09;;;;;;;14.25;6.53;;;;;;;3.32;46.67;102509.83;1735604;81;20980;-54
2021/10/09 00:04:36;;;;;;;9.90;5.95;;;;;;;3.32;46.67;102509.83;1735058;82;21009;-54
2021/10/09 00:07:03;;;;;;;13.88;6.87;;;;;;;3.30;46.40;102518.71;1738855;82;21049;-53
2021/10/09 00:09:29;;;;;;;37.98;8.30;;;;;;;3.23;46.74;102510.30;1735248;82;21843;-54
2021/10/09 00:11:58;;;;;;;13.48;6.33;;;;;;;3.23;46.74;102510.30;1735150;82;21475;-54
2021/10/09 00:14:24;;;;;;;14.05;6.80;;;;;;;3.14;46.82;102502.66;1735558;82;20984;-53
2021/10/09 00:16:51;;;;;;;20.72;7.45;;;;;;;3.12;47.03;102517.48;1741363;81;21474;-54
2021/10/09 00:19:17;;;;;;;15.88;6.85;;;;;;;3.02;47.37;102522.59;1714159;82;21518;-53
2021/10/09 00:21:44;;;;;;;25.40;7.05;;;;;;;2.91;47.96;102522.09;1743323;81;21166;-54
2021/10/09 00:24:15;;;;;;;20.55;7.35;;;;;;;2.77;48.14;102515.44;1743537;82;20960;-54
2021/10/09 00:26:42;;;;;;;30.20;8.10;;;;;;;2.64;48.93;102519.99;1743288;81;20972;-54
2021/10/09 00:29:09;;;;;;;27.65;7.78;;;;;;;2.50;49.15;102522.28;1743372;82;21498;-54
2021/10/09 00:31:36;;;;;;;18.02;7.28;;;;;;;2.35;49.39;102511.80;1743486;82;20984;-54
2021/10/09 00:34:03;;;;;;;19.62;7.10;;;;;;;2.21;49.60;102514.97;1743444;82;21131;-53
2021/10/09 00:36:30;;;;;;;17.00;6.58;;;;;;;2.08;50.13;102521.16;1743446;82;20857;-53
2021/10/09 00:38:57;;;;;;;21.07;7.10;;;;;;;1.99;51.20;102523.23;1713978;82;20901;-52
2021/10/09 00:41:23;;;;;;;13.40;6.30;;;;;;;1.87;51.70;102519.66;1743419;82;20936;-52
2021/10/09 00:43:49;;;;;;;19.02;6.70;;;;;;;1.75;52.13;102524.16;1743465;82;21430;-52
2021/10/09 00:46:16;;;;;;;20.80;6.97;;;;;;;1.62;52.69;102531.17;1743694;82;21780;-52
2021/10/09 00:48:43;;;;;;;18.62;6.67;;;;;;;1.49;52.56;102520.72;1743171;82;20991;-51
2021/10/09 00:51:09;;;;;;;21.02;6.67;;;;;;;1.39;52.76;102519.39;1743632;81;20922;-52
2021/10/09 00:53:37;;;;;;;15.88;6.12;;;;;;;1.28;53.82;102521.37;1743336;82;20893;-51
2021/10/09 00:56:04;;;;;;;19.17;6.03;;;;;;;1.18;54.96;102525.91;1743318;82;21534;-51
2021/10/09 00:58:30;;;;;;;21.12;6.60;;;;;;;1.06;54.94;102526.98;1743381;82;21147;-52
2021/10/09 01:00:57;;;;;;;56.73;7.47;;;;;;;0.95;54.97;102523.84;1743482;82;20928;-52
2021/10/09 01:03:24;;;;;;;15.83;6.22;;;;;;;0.85;54.81;102526.29;1743218;81;20980;-52
2021/10/09 01:05:50;;;;;;;22.42;6.70;;;;;;;0.77;55.26;102525.00;1743278;82;21451;-52
2021/10/09 01:08:17;;;;;;;14.15;6.22;;;;;;;0.70;55.88;102525.47;1743360;82;21019;-52
2021/10/09 01:10:44;;;;;;;23.10;6.42;;;;;;;0.63;55.82;102529.34;1743352;82;21085;-52
2021/10/09 01:13:11;;;;;;;13.85;5.50;;;;;;;0.56;56.13;102529.39;1743256;82;20924;-52
2021/10/09 01:15:38;;;;;;;22.55;6.67;;;;;;;0.50;57.48;102525.23;1742139;81;21094;-52
2021/10/09 01:18:14;;;;;;;24.43;8.43;;;;;;;0.43;57.73;102520.59;1735163;82;20984;-52
2021/10/09 01:20:55;;;;;;;11.15;5.53;;;;;;;0.37;58.06;102519.83;1735363;82;20972;-52
2021/10/09 01:23:24;;;;;;;17.42;5.80;;;;;;;0.32;58.12;102528.00;1734146;82;21163;-52
2021/10/09 01:25:51;;;;;;;14.07;6.37;;;;;;;0.28;58.83;102529.52;1714144;82;20989;-52
2021/10/09 01:28:19;;;;;;;20.15;6.85;;;;;;;0.19;59.31;102524.77;1734992;82;20953;-52
2021/10/09 01:30:46;;;;;;;13.72;6.58;;;;;;;0.13;59.40;102530.38;1735044;82;20996;-52
2021/10/09 01:33:14;;;;;;;19.98;7.60;;;;;;;0.08;59.49;102529.62;1735212;82;21463;-51
2021/10/09 01:35:49;;;;;;;33.58;9.43;;;;;;;0.08;60.01;102529.23;1735307;82;21835;-52
2021/10/09 01:38:19;;;;;;;31.15;10.30;;;;;;;0.08;60.21;102524.14;1735014;82;20949;-51
2021/10/09 01:40:46;;;;;;;38.88;11.83;;;;;;;0.02;60.28;102521.63;1735235;82;20933;-52
2021/10/09 01:43:15;;;;;;;37.20;10.35;;;;;;;-0.03;60.24;102523.52;1735100;82;20988;-52
2021/10/09 01:45:42;;;;;;;22.70;7.42;;;;;;;-0.06;60.37;102520.80;1735237;82;21471;-52
2021/10/09 01:48:09;;;;;;;29.05;8.53;;;;;;;-0.11;60.22;102518.37;1735227;82;21981;-52
2021/10/09 01:50:35;;;;;;;23.98;8.10;;;;;;;-0.13;60.54;102514.84;1734974;81;21003;-52
2021/10/09 01:53:05;;;;;;;24.85;7.47;;;;;;;-0.18;60.49;102511.15;1735599;82;20968;-52
2021/10/09 01:55:33;;;;;;;25.82;7.75;;;;;;;-0.19;60.62;102519.58;1735065;82;20976;-52
2021/10/09 01:58:00;;;;;;;17.40;5.17;;;;;;;-0.22;60.66;102523.22;1714459;82;20965;-51
2021/10/09 02:00:26;;;;;;;19.32;6.12;;;;;;;-0.25;60.49;102526.86;1735132;82;21134;-52
2021/10/09 02:02:56;;;;;;;17.10;6.05;;;;;;;-0.26;61.32;102517.05;1735363;82;21024;-52
2021/10/09 02:05:21;;;;;;;19.17;5.53;;;;;;;-0.30;61.61;102517.29;1734990;81;20936;-51
2021/10/09 02:07:49;;;;;;;20.02;5.10;;;;;;;-0.34;61.66;102522.98;1735103;81;20953;-51
2021/10/09 02:10:16;;;;;;;11.93;4.90;;;;;;;-0.34;61.38;102523.37;1735105;82;20999;-52
2021/10/09 02:12:46;;;;;;;16.20;4.47;;;;;;;-0.35;61.42;102523.78;1735180;82;20980;-52
2021/10/09 02:15:16;;;;;;;19.15;5.53;;;;;;;-0.38;61.48;102524.87;1735154;82;20964;-52
2021/10/09 02:25:47;;;;;;;9.23;4.62;;;;;;;-0.51;62.06;102528.73;1749428;82;22268;-52
2021/10/09 02:28:24;;;;;;;13.18;4.78;;;;;;;-0.52;62.04;102530.78;1746289;81;20948;-52
2021/10/09 02:30:54;;;;;;;18.15;4.50;;;;;;;-0.52;61.66;102528.24;1749228;82;20968;-52
2021/10/09 02:33:22;;;;;;;10.35;4.90;;;;;;;-0.53;61.69;102527.34;1749478;82;21525;-52
2021/10/09 02:35:49;;;;;;;16.42;4.45;;;;;;;-0.53;62.38;102527.34;1749256;82;20968;-51
2021/10/09 02:38:15;;;;;;;21.82;5.12;;;;;;;-0.56;62.79;102526.30;1749660;82;21166;-52
2021/10/09 02:40:43;;;;;;;21.00;5.03;;;;;;;-0.63;63.01;102521.23;1749277;82;20932;-52
2021/10/09 02:43:10;;;;;;;16.48;5.28;;;;;;;-0.67;62.91;102521.42;1749549;82;20941;-52
2021/10/09 02:45:37;;;;;;;15.05;4.60;;;;;;;-0.69;63.11;102519.18;1749187;82;20976;-51
2021/10/09 02:48:06;;;;;;;15.32;5.33;;;;;;;-0.73;63.68;102519.78;1749133;81;21605;-52
2021/10/09 02:50:34;;;;;;;18.35;5.72;;;;;;;-0.78;64.11;102518.63;1749339;82;21148;-52
2021/10/09 02:53:01;;;;;;;18.62;4.20;;;;;;;-0.85;64.81;102523.72;1749107;82;21018;-52
2021/10/09 02:55:27;;;;;;;10.30;5.05;;;;;;;-0.90;65.27;102530.20;1749245;82;20893;-52
2021/10/09 02:57:54;;;;;;;17.27;5.05;;;;;;;-0.96;65.87;102522.20;1721793;82;21007;-52
2021/10/09 03:00:22;;;;;;;14.83;5.12;;;;;;;-1.02;65.83;102522.69;1749201;80;21445;-52
2021/10/09 03:02:49;;;;;;;11.20;5.10;;;;;;;-1.08;66.34;102524.85;1749164;81;21106;-52
2021/10/09 03:05:18;;;;;;;13.03;4.97;;;;;;;-1.16;66.66;102526.50;1749320;82;20963;-52
2021/10/09 03:07:45;;;;;;;20.32;4.85;;;;;;;-1.24;66.81;102521.33;1749163;82;20980;-52
2021/10/09 03:10:12;;;;;;;12.78;4.30;;;;;;;-1.32;67.12;102533.55;1749611;82;21011;-52
2021/10/09 03:12:41;;;;;;;12.47;4.47;;;;;;;-1.40;67.26;102532.56;1749311;82;20928;-52
2021/10/09 03:15:09;;;;;;;18.17;4.67;;;;;;;-1.49;67.39;102535.02;1749253;82;21059;-52
2021/10/09 03:17:37;;;;;;;22.58;4.58;;;;;;;-1.59;67.83;102537.75;1749249;82;21003;-52
2021/10/09 03:20:09;;;;;;;13.30;4.15;;;;;;;-1.66;68.26;102535.57;1749322;82;20968;-51
2021/10/09 03:22:36;;;;;;;17.50;4.37;;;;;;;-1.74;68.47;102536.37;1749410;82;20999;-52
2021/10/09 03:25:04;;;;;;;12.35;4.25;;;;;;;-1.81;68.79;102541.42;1749083;81;21544;-53
2021/10/09 03:27:32;;;;;;;14.23;4.72;;;;;;;-1.88;69.08;102540.13;1749567;82;21120;-52
2021/10/09 03:30:00;;;;;;;14.23;3.92;;;;;;;-1.94;69.56;102543.91;1749555;82;21564;-53
2021/10/09 03:32:26;;;;;;;23.22;4.42;;;;;;;-2.02;69.97;102544.70;1749182;81;20960;-52
2021/10/09 03:34:54;;;;;;;22.00;4.40;;;;;;;-2.06;70.16;102551.22;1749167;82;20936;-53
2021/10/09 03:37:21;;;;;;;14.93;3.80;;;;;;;-2.11;70.29;102557.66;1749190;82;20980;-52
2021/10/09 03:39:50;;;;;;;16.17;3.90;;;;;;;-2.17;70.64;102557.22;1749214;82;21123;-52
2021/10/09 03:44:57;;;;;;;13.98;3.83;;;;;;;-2.27;71.14;102552.31;1749491;82;21043;-53
2021/10/09 03:47:27;;;;;;;9.23;3.70;;;;;;;-2.33;71.31;102549.86;1749305;81;21026;-51
2021/10/09 03:49:56;;;;;;;16.12;3.58;;;;;;;-2.37;71.31;102549.16;1749444;82;20976;-53
2021/10/09 03:55:08;;;;;;;12.93;3.52;;;;;;;-2.47;71.36;102546.75;1749171;82;21490;-52
2021/10/09 03:57:35;;;;;;;10.48;3.83;;;;;;;-2.50;71.37;102544.00;1749498;82;21295;-52
2021/10/09 04:00:08;;;;;;;15.38;4.28;;;;;;;-2.54;71.50;102538.23;1721760;82;21429;-52
2021/10/09 04:02:38;;;;;;;9.05;4.22;;;;;;;-2.55;71.64;102542.41;1749148;81;21502;-53
2021/10/09 04:05:05;;;;;;;15.55;4.72;;;;;;;-2.56;71.64;102546.13;1749379;82;21494;-52
2021/10/09 04:07:32;;;;;;;15.03;4.53;;;;;;;-2.57;71.98;102555.78;1749155;81;21121;-52
2021/10/09 04:09:59;;;;;;;16.65;4.70;;;;;;;-2.61;72.10;102558.11;1749554;82;20980;-53
2021/10/09 04:12:26;;;;;;;13.90;4.53;;;;;;;-2.62;72.17;102557.98;1721718;82;21011;-52
2021/10/09 04:14:52;;;;;;;21.23;5.37;;;;;;;-2.63;72.16;102555.86;1749600;82;20992;-53
2021/10/09 04:17:18;;;;;;;30.45;4.60;;;;;;;-2.64;72.28;102555.36;1749211;81;21203;-52
2021/10/09 04:19:45;;;;;;;20.85;5.08;;;;;;;-2.65;72.51;102559.05;1749151;82;20972;-53
2021/10/09 04:22:12;;;;;;;30.02;6.45;;;;;;;-2.67;72.72;102562.73;1749255;80;20983;-52
2021/10/09 04:24:40;;;;;;;16.00;4.85;;;;;;;-2.67;72.93;102570.74;1749290;82;20984;-52
2021/10/09 04:27:07;;;;;;;10.15;5.30;;;;;;;-2.66;73.01;102568.70;1749281;82;20996;-52
2021/10/09 04:29:36;;;;;;;15.35;5.50;;;;;;;-2.65;72.88;102562.85;1749141;82;21069;-52
2021/10/09 04:32:04;;;;;;;11.55;4.37;;;;;;;-2.61;73.04;102555.94;1746211;81;20979;-52
2021/10/09 04:34:32;;;;;;;14.10;5.92;;;;;;;-2.57;73.32;102569.73;1749060;82;21011;-52
2021/10/09 04:36:58;;;;;;;18.55;5.22;;;;;;;-2.54;73.54;102566.13;1748961;82;20992;-53
2021/10/09 04:39:28;;;;;;;29.12;5.85;;;;;;;-2.48;73.65;102566.55;1749070;81;20980;-52
2021/10/09 04:41:55;;;;;;;24.85;6.28;;;;;;;-2.40;73.71;102563.28;1749112;82;21461;-52
2021/10/09 04:44:22;;;;;;;24.30;7.25;;;;;;;-2.31;73.73;102562.25;1749069;82;20967;-53
2021/10/09 04:46:50;;;;;;;15.48;7.00;;;;;;;-2.19;73.57;102567.28;1749274;82;20939;-53
2021/10/09 04:49:18;;;;;;;17.30;6.45;;;;;;;-2.05;73.36;102569.86;1749240;82;21004;-53
2021/10/09 04:51:45;;;;;;;19.15;6.45;;;;;;;-1.95;73.14;102562.47;1749350;82;21616;-54
2021/10/09 04:54:11;;;;;;;14.75;6.20;;;;;;;-1.84;72.80;102562.81;1749289;82;21309;-53
2021/10/09 04:56:38;;;;;;;20.37;7.47;;;;;;;-1.71;72.71;102566.14;1749196;82;21510;-52
2021/10/09 04:59:05;;;;;;;20.92;7.80;;;;;;;-1.61;72.32;102565.98;1749651;82;21597;-52
2021/10/09 05:01:32;;;;;;;20.57;7.80;;;;;;;-1.49;71.81;102562.96;1749139;81;20924;-53
2021/10/09 05:03:59;;;;;;;37.67;9.55;;;;;;;-1.38;71.31;102567.47;1749182;82;20971;-53
2021/10/09 05:06:26;;;;;;;35.40;10.63;;;;;;;-1.24;70.95;102559.86;1749432;82;21100;-53
2021/10/09 05:08:54;;;;;;;34.55;10.65;;;;;;;-1.10;70.12;102569.23;1749133;80;21034;-53
2021/10/09 05:11:21;;;;;;;33.20;10.88;;;;;;;-0.94;69.40;102571.07;1749252;82;22176;-53
2021/10/09 05:13:49;;;;;;;29.65;8.43;;;;;;;-0.76;68.54;102567.55;1749161;82;20936;-53
2021/10/09 05:16:16;;;;;;;30.10;7.95;;;;;;;-0.63;67.82;102562.83;1749112;82;21027;-53
2021/10/09 05:18:43;;;;;;;24.07;6.97;;;;;;;-0.46;66.96;102560.41;1737023;82;21758;-52
2021/10/09 05:21:09;;;;;;;15.88;5.00;;;;;;;-0.27;65.82;102567.48;1734968;81;20968;-52
2021/10/09 05:23:37;;;;;;;18.55;5.15;;;;;;;-0.11;64.99;102568.03;1735059;82;20968;-53
2021/10/09 05:26:05;;;;;;;17.77;4.45;;;;;;;0.05;64.63;102567.27;1735318;82;20926;-53
2021/10/09 05:28:44;;;;;;;7.65;3.47;;;;;;;0.17;63.74;102567.11;1735162;81;21000;-53
2021/10/09 05:31:22;;;;;;;13.10;3.83;;;;;;;0.33;62.94;102564.16;1735263;82;22007;-53
2021/10/09 05:33:43;;;;;;;19.92;4.42;;;;;;;0.48;62.26;102557.40;1735443;81;21550;-53
2021/10/09 05:36:10;;;;;;;14.53;4.17;;;;;;;0.66;61.05;102557.96;1735365;82;20976;-53
2021/10/09 05:38:37;;;;;;;21.95;4.35;;;;;;;0.78;60.77;102557.77;1735060;81;20952;-52
2021/10/09 05:41:04;;;;;;;19.67;4.00;;;;;;;0.91;60.25;102551.67;1735400;81;20921;-53
2021/10/09 05:43:32;;;;;;;19.82;4.83;;;;;;;1.05;60.18;102554.56;1735316;81;21178;-53
2021/10/09 05:45:59;;;;;;;9.55;3.58;;;;;;;1.26;59.19;102557.80;1713874;82;20987;-53
2021/10/09 05:48:27;;;;;;;13.80;4.47;;;;;;;1.49;58.38;102551.77;1735065;82;20905;-53
2021/10/09 05:51:02;;;;;;;18.00;4.72;;;;;;;1.71;57.73;102553.75;1735190;82;21044;-52
2021/10/09 05:53:44;;;;;;;28.73;6.97;;;;;;;1.93;57.47;102553.20;1735295;81;20988;-52
2021/10/09 06:46:00;;;;;;;14.73;3.45;;;;;;;5.33;43.58;102545.25;1723400;83;21154;-52
2021/10/09 06:48:07;;;;;;;7.20;3.00;;;;;;;5.77;41.87;102546.80;1715032;83;20971;-53
2021/10/09 07:01:21;;;;;;;19.25;2.85;;;;;;;6.56;40.38;102528.43;1724131;83;20947;-52
2021/10/09 07:03:48;;;;;;;10.18;3.15;;;;;;;6.80;39.42;102513.68;1723785;83;20963;-53
2021/10/09 07:06:17;;;;;;;14.55;3.25;;;;;;;6.90;39.36;102516.58;1716044;83;20955;-53
2021/10/09 07:09:00;;;;;;;12.60;3.02;;;;;;;7.03;39.23;102511.37;1678872;84;20979;-53
2021/10/09 07:11:38;;;;;;;8.98;3.15;;;;;;;7.18;39.71;102508.37;1704200;83;21150;-52
2021/10/09 07:14:06;;;;;;;14.03;2.90;;;;;;;7.36;38.55;102501.99;1710926;83;21046;-53
2021/10/09 07:16:34;;;;;;;5.55;2.67;;;;;;;7.51;38.11;102505.41;1701456;84;21545;-52
2021/10/09 07:19:01;;;;;;;5.33;2.45;;;;;;;7.52;37.71;102504.57;1711064;83;20971;-52
2021/10/09 07:21:29;;;;;;;7.50;2.80;;;;;;;7.55;37.85;102503.36;1701401;84;20975;-53
2021/10/09 07:23:55;;;;;;;16.65;4.37;;;;;;;7.60;38.15;102498.34;1710533;83;21182;-53
2021/10/09 07:26:22;;;;;;;12.93;3.05;;;;;;;7.70;37.16;102499.02;1651908;84;21012;-53
2021/10/09 07:28:49;;;;;;;18.23;3.05;;;;;;;7.76;36.69;102506.05;1710557;83;20987;-53
2021/10/09 07:31:16;;;;;;;11.30;3.27;;;;;;;7.83;36.50;102510.96;1700667;84;20963;-53
2021/10/09 07:33:42;;;;;;;8.98;2.80;;;;;;;7.90;36.64;102511.16;1684096;83;20972;-53
2021/10/09 07:36:09;;;;;;;11.93;2.72;;;;;;;8.03;36.00;102512.34;1700676;83;21069;-53
2021/10/09 07:38:36;;;;;;;12.90;3.37;;;;;;;8.14;35.83;102506.16;1710323;83;20987;-53
2021/10/09 07:41:03;;;;;;;15.38;3.17;;;;;;;8.28;35.91;102501.34;1700820;84;20980;-53
2021/10/09 07:43:30;;;;;;;11.90;2.72;;;;;;;8.43;36.01;102505.09;1710506;83;21019;-52
2021/10/09 07:45:57;;;;;;;8.83;2.70;;;;;;;8.62;34.77;102511.17;1700783;84;21459;-53
2021/10/09 07:48:23;;;;;;;17.10;2.95;;;;;;;8.75;34.70;102508.88;1710494;83;21865;-53
2021/10/09 07:50:50;;;;;;;11.73;2.95;;;;;;;8.90;34.37;102504.03;1674724;84;21592;-53
2021/10/09 07:53:16;;;;;;;12.55;2.55;;;;;;;9.01;33.33;102496.94;1683735;83;21067;-52
2021/10/09 07:55:43;;;;;;;7.47;2.00;;;;;;;9.04;33.74;102499.59;1701093;84;20976;-53
2021/10/09 07:58:09;;;;;;;8.65;2.35;;;;;;;9.13;33.46;102489.86;1710452;83;20983;-52
2021/10/09 08:00:35;;;;;;;8.28;2.67;;;;;;;9.27;33.68;102496.59;1701124;84;21162;-53
2021/10/09 08:03:04;;;;;;;8.55;2.87;;;;;;;9.42;32.57;102492.14;1710549;82;20972;-53
2021/10/09 08:05:34;;;;;;;10.82;2.45;;;;;;;9.47;32.02;102493.09;1700983;84;21565;-52
2021/10/09 08:08:03;;;;;;;14.73;2.70;;;;;;;9.53;31.39;102463.91;1710511;83;20947;-53
2021/10/09 08:10:29;;;;;;;10.63;2.80;;;;;;;9.52;31.05;102491.45;1701056;84;20979;-53
2021/10/09 08:12:55;;;;;;;10.95;2.85;;;;;;;9.53;32.09;102487.17;1700512;83;21930;-53
2021/10/09 08:15:22;;;;;;;13.95;2.95;;;;;;;9.63;31.75;102477.44;1695335;84;21506;-53
2021/10/09 08:17:49;;;;;;;7.33;2.08;;;;;;;9.68;31.45;102484.84;1695175;84;20975;-53
2021/10/09 08:20:16;;;;;;;7.72;2.17;;;;;;;9.54;31.84;102483.30;1665238;84;20937;-53
2021/10/09 08:22:57;;;;;;;12.18;2.42;;;;;;;9.44;31.67;102470.63;1695340;84;20972;-53
2021/10/09 08:35:24;;;;;;;18.62;2.45;;;;;;;9.35;32.09;102482.09;1695450;84;21000;-52
2021/10/09 08:38:52;;;;;;;8.28;1.87;;;;;;;10.13;31.04;102473.08;1695377;84;21151;-53
2021/10/09 08:41:18;;;;;;;4.08;1.85;;;;;;;10.30;30.28;102467.75;1688434;84;20996;-52
2021/10/09 08:43:46;;;;;;;8.75;2.10;;;;;;;10.27;29.99;102481.05;1665230;84;21008;-52
2021/10/09 08:46:13;;;;;;;17.45;2.55;;;;;;;10.24;29.22;102465.07;1695178;84;21520;-52
2021/10/09 08:48:50;;;;;;;20.92;3.85;;;;;;;10.09;30.80;102478.62;1695221;84;20964;-52
2021/10/09 08:51:22;;;;;;;11.15;2.80;;;;;;;10.01;30.63;102484.98;1695192;84;21133;-52
2021/10/09 08:53:48;;;;;;;12.90;3.17;;;;;;;9.94;31.61;102481.83;1695257;84;21518;-53
2021/10/09 08:56:34;;;;;;;8.05;2.42;;;;;;;9.94;31.42;102477.95;1695317;84;21601;-53
2021/10/09 08:59:26;;;;;;;7.85;2.83;;;;;;;9.97;31.24;102476.70;1692775;84;20976;-53
2021/10/09 09:02:13;;;;;;;10.72;3.47;;;;;;;10.11;31.03;102469.59;1695273;84;21003;-54
2021/10/09 09:40:19;;;;;;;5.90;2.10;;;;;;;11.60;26.08;102436.47;1700924;84;21008;-54
2021/10/09 09:42:49;;;;;;;13.35;2.00;;;;;;;11.81;26.69;102421.50;1710562;83;20995;-52
2021/10/09 09:45:22;;;;;;;4.53;1.67;;;;;;;12.01;25.98;102426.89;1700579;84;21274;-53
2021/10/09 09:47:49;;;;;;;9.38;1.70;;;;;;;12.05;24.86;102419.97;1710314;83;20956;-52
2021/10/09 09:50:15;;;;;;;2.75;1.72;;;;;;;12.01;26.08;102412.61;1700794;84;20944;-53
2021/10/09 09:52:44;;;;;;;11.65;2.37;;;;;;;12.15;25.69;102421.78;1710064;83;21516;-53
2021/10/09 09:55:16;;;;;;;8.80;2.17;;;;;;;12.24;25.29;102414.45;1674505;84;21176;-53
2021/10/09 09:57:43;;;;;;;15.08;3.60;;;;;;;12.32;24.87;102405.00;1710210;83;21108;-53
2021/10/09 10:00:15;;;;;;;1.50;1.40;;;;;;;12.47;25.41;102415.02;1700616;84;21550;-53
2021/10/09 10:02:55;;;;;;;4.72;1.60;;;;;;;12.69;25.00;102407.31;1710410;83;21536;-52
2021/10/09 10:05:24;;;;;;;10.40;1.70;;;;;;;12.97;25.68;102393.98;1674471;84;21042;-53
2021/10/09 10:07:51;;;;;;;16.30;4.67;;;;;;;13.25;23.95;102394.45;1683753;83;20987;-54
2021/10/09 10:10:18;;;;;;;8.70;3.22;;;;;;;13.42;24.21;102378.89;1700712;83;21206;-54
2021/10/09 10:12:47;;;;;;;6.60;1.67;;;;;;;13.64;24.12;102390.18;1703940;83;21009;-51
2021/10/09 10:15:14;;;;;;;11.90;1.65;;;;;;;13.76;23.53;102391.45;1665397;84;21052;-52
2021/10/09 10:17:44;;;;;;;6.35;1.52;;;;;;;13.87;23.06;102391.90;1695258;84;21043;-52
2021/10/09 10:20:20;;;;;;;18.07;2.15;;;;;;;13.83;23.02;102387.13;1695297;83;20916;-52
2021/10/09 10:22:54;;;;;;;14.40;1.50;;;;;;;13.68;22.79;102393.66;1695162;83;21249;-53
2021/10/09 10:25:34;;;;;;;10.50;1.72;;;;;;;13.35;23.11;102397.52;1695185;84;21668;-53
2021/10/09 10:28:13;;;;;;;7.08;1.45;;;;;;;13.12;22.77;102393.56;1694547;84;20936;-52
2021/10/09 10:30:49;;;;;;;14.65;1.62;;;;;;;13.04;22.73;102390.98;1665664;84;21609;-52
2021/10/09 10:33:21;;;;;;;5.60;1.72;;;;;;;12.84;23.33;102403.48;1695279;84;20968;-52
2021/10/09 10:35:50;;;;;;;2.87;1.75;;;;;;;12.61;23.64;102404.68;1695231;84;20973;-53
2021/10/09 10:38:34;;;;;;;19.17;6.30;;;;;;;12.46;24.03;102408.08;1695308;83;21016;-53
2021/10/09 10:41:04;;;;;;;18.75;3.42;;;;;;;12.40;23.94;102403.75;1665642;84;20964;-54
2021/10/09 10:43:44;;;;;;;9.80;3.67;;;;;;;12.27;23.79;102396.74;1695285;84;20928;-54
2021/10/09 10:46:35;;;;;;;;;;;;;;;12.16;24.62;102390.19;1695757;84;21025;-54
2021/10/09 10:49:14;;;;;;;6.37;3.30;;;;;;;12.10;24.22;102394.05;1695152;83;21152;-54
2021/10/09 10:51:58;;;;;;;17.00;4.60;;;;;;;11.98;25.31;102395.66;1694619;84;21585;-54
2021/10/09 10:57:03;;;;;;;5.28;1.60;;;;;;;11.98;25.29;102390.92;1695235;84;20967;-53
2021/10/09 10:59:35;;;;;;;7.40;1.50;;;;;;;11.95;24.95;102396.09;1695377;84;21064;-52
2021/10/09 11:02:18;;;;;;;7.12;1.72;;;;;;;11.87;24.90;102390.84;1665714;84;21047;-52
2021/10/09 11:04:54;;;;;;;12.78;1.85;;;;;;;11.83;24.95;102390.39;1695358;84;21609;-52
2021/10/09 11:07:29;;;;;;;6.97;1.90;;;;;;;11.83;24.68;102386.50;1689154;83;21550;-52
2021/10/09 11:10:19;;;;;;;11.83;1.67;;;;;;;11.88;25.21;102387.39;1694776;84;20987;-52
2021/10/09 11:12:51;;;;;;;2.42;1.60;;;;;;;11.96;25.35;102378.36;1721870;81;20929;-52
2021/10/09 11:15:26;;;;;;;12.40;2.10;;;;;;;12.23;25.28;102379.41;1757135;81;21070;-52
2021/10/09 11:18:06;;;;;;;11.97;1.55;;;;;;;12.55;25.51;102384.77;1756918;81;21493;-52
2021/10/09 11:20:38;;;;;;;5.45;2.17;;;;;;;12.91;24.60;102383.59;1753540;81;20999;-52
2021/10/09 11:23:10;;;;;;;5.10;1.75;;;;;;;12.97;23.68;102376.21;1745790;81;20975;-52
2021/10/09 11:25:45;;;;;;;7.20;1.52;;;;;;;12.91;24.09;102376.64;1729096;81;21469;-52
2021/10/09 11:28:22;;;;;;;7.83;1.70;;;;;;;12.86;24.14;102388.77;1757099;81;21162;-52
2021/10/09 11:30:48;;;;;;;6.55;1.70;;;;;;;12.92;24.21;102384.88;1757064;81;20967;-52
2021/10/09 11:33:23;;;;;;;5.97;1.75;;;;;;;12.83;23.97;102393.95;1756921;81;20983;-53
2021/10/09 11:35:50;;;;;;;8.30;1.95;;;;;;;12.70;23.92;102383.06;1752145;81;21580;-53
2021/10/09 11:38:25;;;;;;;5.92;1.52;;;;;;;12.53;24.03;102382.59;1727039;83;21491;-53
2021/10/09 11:40:55;;;;;;;;;;;;;;;12.39;24.46;102379.94;1729525;82;21124;-53
2021/10/09 11:43:36;;;;;;;21.10;4.92;;;;;;;12.32;25.36;102381.63;1724007;82;20116;-53
2021/10/09 11:54:31;;;;;;;8.73;2.50;;;;;;;12.17;25.32;102371.16;1721170;83;21166;-54
2021/10/09 11:56:31;;;;;;;7.05;2.50;;;;;;;12.18;25.31;102367.70;1712295;83;22250;-53
2021/10/09 11:58:59;;;;;;;10.13;2.17;;;;;;;12.19;25.73;102375.92;1692175;83;21780;-53
2021/10/09 12:01:37;;;;;;;12.47;2.10;;;;;;;12.23;24.44;102367.28;1638121;86;21521;-53
2021/10/09 12:04:18;;;;;;;5.45;2.02;;;;;;;12.15;24.71;102362.49;1637998;86;20987;-53
2021/10/09 12:06:49;;;;;;;4.85;2.98;;;;;;;12.11;24.83;102357.70;1674053;84;21096;-53
2021/10/09 12:09:18;;;;;;;6.65;3.02;;;;;;;12.06;25.31;102355.10;1692188;84;21540;-53
2021/10/09 12:11:46;;;;;;;13.68;5.30;;;;;;;12.02;25.80;102358.55;1695064;83;21628;-53
2021/10/09 12:14:14;;;;;;;13.40;3.70;;;;;;;12.03;25.40;102352.49;1672927;84;21007;-53
2021/10/09 12:16:49;;;;;;;14.47;2.22;;;;;;;12.02;24.82;102345.56;1730673;82;20885;-53
2021/10/09 12:19:28;;;;;;;10.58;3.08;;;;;;;11.92;24.39;102351.09;1723785;82;21757;-53
2021/10/09 12:22:05;;;;;;;10.93;3.92;;;;;;;11.87;24.84;102354.10;1709979;82;20996;-53
2021/10/09 12:24:38;;;;;;;20.60;7.40;;;;;;;11.85;25.10;102336.77;1705066;83;21032;-53
2021/10/09 12:27:12;;;;;;;14.50;3.70;;;;;;;11.82;25.01;102344.54;1649864;86;21000;-54
2021/10/09 12:30:04;;;;;;;11.22;2.60;;;;;;;11.82;24.69;102349.73;1705880;84;21546;-53
2021/10/09 12:32:46;;;;;;;13.22;3.15;;;;;;;11.77;24.46;102332.41;1705792;84;21146;-53
2021/10/09 12:35:21;;;;;;;17.90;4.70;;;;;;;11.78;24.52;102328.08;1724464;82;20972;-53
2021/10/09 12:38:08;;;;;;;18.25;6.62;;;;;;;11.81;24.62;102312.52;1735117;82;21040;-53
2021/10/09 12:40:42;;;;;;;14.60;7.00;;;;;;;11.81;24.07;102324.64;1735390;82;20980;-53
2021/10/09 12:43:15;;;;;;;12.18;4.62;;;;;;;11.76;24.45;102327.20;1735033;82;21015;-53
2021/10/09 12:45:41;;;;;;;15.75;6.20;;;;;;;11.74;24.60;102323.28;1735599;82;21202;-53
2021/10/09 12:48:08;;;;;;;15.68;5.33;;;;;;;11.74;25.38;102317.24;1699592;83;21020;-52
2021/10/09 12:50:37;;;;;;;16.62;5.28;;;;;;;11.76;24.91;102324.60;1706036;83;21652;-53
2021/10/09 12:53:03;;;;;;;15.35;4.12;;;;;;;11.76;24.90;102324.19;1713250;82;20921;-53
2021/10/09 12:55:33;;;;;;;9.85;3.27;;;;;;;11.77;24.58;102322.03;1735258;82;21008;-52
2021/10/09 12:58:03;;;;;;;16.48;3.02;;;;;;;11.76;24.45;102320.72;1735236;82;21134;-52
2021/10/09 13:00:32;;;;;;;10.60;2.90;;;;;;;11.76;24.26;102320.72;1735411;82;20956;-52
2021/10/09 13:02:59;;;;;;;14.38;2.92;;;;;;;11.73;24.56;102313.77;1710973;82;21466;-52
2021/10/09 13:05:29;;;;;;;15.83;4.35;;;;;;;11.73;24.34;102317.66;1706027;83;22568;-52
2021/10/09 13:07:59;;;;;;;90.62;6.15;;;;;;;11.74;24.67;102309.46;1705921;83;22404;-53
2021/10/09 13:10:28;;;;;;;18.48;4.83;;;;;;;11.71;25.31;102311.59;1705894;84;21123;-53
2021/10/09 13:12:54;;;;;;;10.93;5.67;;;;;;;11.68;25.76;102301.20;1711528;81;20964;-53
2021/10/09 13:15:21;;;;;;;18.50;4.17;;;;;;;11.67;25.50;102300.77;1757248;81;20991;-53
2021/10/09 13:17:49;;;;;;;10.72;3.17;;;;;;;11.66;25.27;102299.03;1756596;81;21023;-52
2021/10/09 13:20:16;;;;;;;15.38;2.62;;;;;;;11.67;25.06;102301.20;1756909;81;20991;-53
2021/10/09 13:22:45;;;;;;;18.15;2.05;;;;;;;11.67;25.27;102307.25;1757190;81;21147;-53
2021/10/09 13:25:12;;;;;;;15.80;2.45;;;;;;;11.74;24.71;102312.05;1756772;81;20975;-53
2021/10/09 13:27:41;;;;;;;13.35;3.40;;;;;;;11.78;25.13;102317.28;1750992;81;20975;-53
2021/10/09 13:30:10;;;;;;;7.15;3.22;;;;;;;11.88;25.07;102318.63;1727193;81;20937;-53
2021/10/09 13:32:38;;;;;;;6.78;3.17;;;;;;;11.93;24.93;102319.52;1756545;80;20928;-53
2021/10/09 13:35:07;;;;;;;6.70;3.47;;;;;;;11.91;25.41;102319.94;1755530;81;21148;-54
2021/10/09 13:37:39;;;;;;;17.30;2.90;;;;;;;11.95;25.58;102305.27;1747091;81;20995;-53
2021/10/09 13:40:06;;;;;;;7.75;3.20;;;;;;;11.94;24.87;102317.35;1756722;81;20979;-53
2021/10/09 13:42:32;;;;;;;21.80;3.45;;;;;;;11.91;25.37;102315.63;1755421;81;21277;-53
2021/10/09 13:44:59;;;;;;;22.48;2.50;;;;;;;11.88;25.50;102308.24;1727318;81;20904;-53